sensor_id;sensor_type;location;lat;lon;timestamp;temperature;humidity
18797;DHT22;9526;52.612;13.300;2022-10-10T00:00:45;8.50;99.90
18797;DHT22;9526;52.612;13.300;2022-10-10T00:03:09;8.50;99.90
18797;DHT22;9526;52.612;13.300;2022-10-10T00:05:33;8.50;99.90
18797;DHT22;9526;52.612;13.300;2022-10-10T00:07:58;8.40;99.90
18797;DHT22;9526;52.612;13.300;2022-10-10T00:10:23;8.40;99.90
18797;DHT22;9526;52.612;13.300;2022-10-10T00:12:47;8.40;99.90
18797;DHT22;9526;52.612;13.300;2022-10-10T00:15:13;8.40;99.90
18797;DHT22;9526;52.612;13.300;2022-10-10T00:17:37;8.50;99.90
18797;DHT22;9526;52.612;13.300;2022-10-10T00:20:01;8.50;99.90
18797;DHT22;9526;52.612;13.300;2022-10-10T00:22:25;8.50;99.90
18797;DHT22;9526;52.612;13.300;2022-10-10T00:24:48;8.50;99.90
18797;DHT22;9526;52.612;13.300;2022-10-10T00:27:14;8.50;99.90
18797;DHT22;9526;52.612;13.300;2022-10-10T00:29:37;8.50;99.90
18797;DHT22;9526;52.612;13.300;2022-10-10T00:32:01;8.50;99.90
18797;DHT22;9526;52.612;13.300;2022-10-10T00:34:25;8.50;99.90
18797;DHT22;9526;52.612;13.300;2022-10-10T00:36:48;8.50;99.90
18797;DHT22;9526;52.612;13.300;2022-10-10T00:39:12;8.50;99.90
18797;DHT22;9526;52.612;13.300;2022-10-10T00:41:35;8.50;99.90
18797;DHT22;9526;52.612;13.300;2022-10-10T00:44:03;8.60;99.90
18797;DHT22;9526;52.612;13.300;2022-10-10T00:46:28;8.60;99.90
18797;DHT22;9526;52.612;13.300;2022-10-10T00:48:51;8.60;99.90
18797;DHT22;9526;52.612;13.300;2022-10-10T00:51:17;8.60;99.90
18797;DHT22;9526;52.612;13.300;2022-10-10T00:53:44;8.60;99.90
18797;DHT22;9526;52.612;13.300;2022-10-10T00:56:10;8.70;99.90
18797;DHT22;9526;52.612;13.300;2022-10-10T00:58:35;8.50;99.90
18797;DHT22;9526;52.612;13.300;2022-10-10T01:01:01;8.50;99.90
18797;DHT22;9526;52.612;13.300;2022-10-10T01:03:25;8.50;99.90
18797;DHT22;9526;52.612;13.300;2022-10-10T01:05:49;8.50;99.90
18797;DHT22;9526;52.612;13.300;2022-10-10T01:08:13;8.40;99.90
18797;DHT22;9526;52.612;13.300;2022-10-10T01:13:45;8.40;99.90
18797;DHT22;9526;52.612;13.300;2022-10-10T01:16:20;8.40;99.90
18797;DHT22;9526;52.612;13.300;2022-10-10T01:18:54;8.40;99.90
18797;DHT22;9526;52.612;13.300;2022-10-10T01:21:28;8.30;99.90
18797;DHT22;9526;52.612;13.300;2022-10-10T01:24:30;8.30;99.90
18797;DHT22;9526;52.612;13.300;2022-10-10T01:27:24;8.30;99.90
18797;DHT22;9526;52.612;13.300;2022-10-10T01:29:55;8.30;99.90
18797;DHT22;9526;52.612;13.300;2022-10-10T01:32:25;8.40;99.90
18797;DHT22;9526;52.612;13.300;2022-10-10T01:35:00;8.40;99.90
18797;DHT22;9526;52.612;13.300;2022-10-10T01:37:36;8.40;99.90
18797;DHT22;9526;52.612;13.300;2022-10-10T01:40:07;8.40;99.90
18797;DHT22;9526;52.612;13.300;2022-10-10T01:42:37;8.30;99.90
18797;DHT22;9526;52.612;13.300;2022-10-10T01:45:06;8.30;99.90
18797;DHT22;9526;52.612;13.300;2022-10-10T01:47:30;8.30;99.90
18797;DHT22;9526;52.612;13.300;2022-10-10T01:49:58;8.20;99.90
18797;DHT22;9526;52.612;13.300;2022-10-10T01:52:31;8.20;99.90
18797;DHT22;9526;52.612;13.300;2022-10-10T01:55:10;8.20;99.90
18797;DHT22;9526;52.612;13.300;2022-10-10T01:57:49;8.20;99.90
18797;DHT22;9526;52.612;13.300;2022-10-10T02:00:20;8.20;99.90
18797;DHT22;9526;52.612;13.300;2022-10-10T02:02:49;8.20;99.90
18797;DHT22;9526;52.612;13.300;2022-10-10T02:05:23;8.20;99.90
18797;DHT22;9526;52.612;13.300;2022-10-10T02:07:53;8.20;99.90
18797;DHT22;9526;52.612;13.300;2022-10-10T02:10:22;8.20;99.90
18797;DHT22;9526;52.612;13.300;2022-10-10T02:12:48;8.20;99.90
18797;DHT22;9526;52.612;13.300;2022-10-10T02:15:14;8.20;99.90
18797;DHT22;9526;52.612;13.300;2022-10-10T02:17:42;8.20;99.90
18797;DHT22;9526;52.612;13.300;2022-10-10T02:20:10;8.20;99.90
18797;DHT22;9526;52.612;13.300;2022-10-10T02:22:36;8.10;99.90
18797;DHT22;9526;52.612;13.300;2022-10-10T02:25:02;8.10;99.90
18797;DHT22;9526;52.612;13.300;2022-10-10T02:27:31;8.10;99.90
18797;DHT22;9526;52.612;13.300;2022-10-10T02:29:59;8.10;99.90
18797;DHT22;9526;52.612;13.300;2022-10-10T02:32:28;8.10;99.90
18797;DHT22;9526;52.612;13.300;2022-10-10T02:35:02;8.00;99.90
18797;DHT22;9526;52.612;13.300;2022-10-10T02:37:29;8.00;99.90
18797;DHT22;9526;52.612;13.300;2022-10-10T02:39:56;8.00;99.90
18797;DHT22;9526;52.612;13.300;2022-10-10T02:42:22;7.90;99.90
18797;DHT22;9526;52.612;13.300;2022-10-10T02:44:47;7.90;99.90
18797;DHT22;9526;52.612;13.300;2022-10-10T02:47:10;7.90;99.90
18797;DHT22;9526;52.612;13.300;2022-10-10T02:49:35;7.90;99.90
18797;DHT22;9526;52.612;13.300;2022-10-10T02:52:00;7.90;99.90
18797;DHT22;9526;52.612;13.300;2022-10-10T02:54:24;7.80;99.90
18797;DHT22;9526;52.612;13.300;2022-10-10T02:56:48;7.80;99.90
18797;DHT22;9526;52.612;13.300;2022-10-10T02:59:11;7.80;99.90
18797;DHT22;9526;52.612;13.300;2022-10-10T03:01:35;7.80;99.90
18797;DHT22;9526;52.612;13.300;2022-10-10T03:03:58;7.80;99.90
18797;DHT22;9526;52.612;13.300;2022-10-10T03:06:22;7.80;99.90
18797;DHT22;9526;52.612;13.300;2022-10-10T03:08:47;7.70;99.90
18797;DHT22;9526;52.612;13.300;2022-10-10T03:11:11;7.70;99.90
18797;DHT22;9526;52.612;13.300;2022-10-10T03:13:34;7.70;99.90
18797;DHT22;9526;52.612;13.300;2022-10-10T03:15:58;7.70;99.90
18797;DHT22;9526;52.612;13.300;2022-10-10T03:18:22;7.60;99.90
18797;DHT22;9526;52.612;13.300;2022-10-10T03:20:49;7.60;99.90
18797;DHT22;9526;52.612;13.300;2022-10-10T03:23:13;7.60;99.90
18797;DHT22;9526;52.612;13.300;2022-10-10T03:25:40;7.60;99.90
18797;DHT22;9526;52.612;13.300;2022-10-10T03:28:04;7.50;99.90
18797;DHT22;9526;52.612;13.300;2022-10-10T03:30:28;7.50;99.90
18797;DHT22;9526;52.612;13.300;2022-10-10T03:32:51;7.50;99.90
18797;DHT22;9526;52.612;13.300;2022-10-10T03:35:15;7.40;99.90
18797;DHT22;9526;52.612;13.300;2022-10-10T03:37:39;7.40;99.90
18797;DHT22;9526;52.612;13.300;2022-10-10T03:40:03;7.40;99.90
18797;DHT22;9526;52.612;13.300;2022-10-10T03:42:28;7.40;99.90
18797;DHT22;9526;52.612;13.300;2022-10-10T03:44:52;7.40;99.90
18797;DHT22;9526;52.612;13.300;2022-10-10T03:47:15;7.40;99.90
18797;DHT22;9526;52.612;13.300;2022-10-10T03:49:39;7.30;99.90
18797;DHT22;9526;52.612;13.300;2022-10-10T03:52:03;7.30;99.90
18797;DHT22;9526;52.612;13.300;2022-10-10T03:54:27;7.30;99.90
18797;DHT22;9526;52.612;13.300;2022-10-10T03:56:50;7.30;99.90
18797;DHT22;9526;52.612;13.300;2022-10-10T03:59:15;7.20;99.90
18797;DHT22;9526;52.612;13.300;2022-10-10T04:01:39;7.20;99.90
18797;DHT22;9526;52.612;13.300;2022-10-10T04:04:02;7.20;99.90
18797;DHT22;9526;52.612;13.300;2022-10-10T04:06:27;7.20;99.90
18797;DHT22;9526;52.612;13.300;2022-10-10T04:08:50;7.20;99.90
18797;DHT22;9526;52.612;13.300;2022-10-10T04:11:14;7.10;99.90
18797;DHT22;9526;52.612;13.300;2022-10-10T04:13:38;7.10;99.90
18797;DHT22;9526;52.612;13.300;2022-10-10T04:16:03;7.20;99.90
18797;DHT22;9526;52.612;13.300;2022-10-10T04:18:26;7.20;99.90
18797;DHT22;9526;52.612;13.300;2022-10-10T04:20:50;7.10;99.90
18797;DHT22;9526;52.612;13.300;2022-10-10T04:23:14;7.10;99.90
18797;DHT22;9526;52.612;13.300;2022-10-10T04:25:38;7.00;99.90
18797;DHT22;9526;52.612;13.300;2022-10-10T04:28:02;6.90;99.90
18797;DHT22;9526;52.612;13.300;2022-10-10T04:30:26;6.90;99.90
18797;DHT22;9526;52.612;13.300;2022-10-10T04:32:53;6.80;99.90
18797;DHT22;9526;52.612;13.300;2022-10-10T04:35:17;6.90;99.90
18797;DHT22;9526;52.612;13.300;2022-10-10T04:37:40;6.80;99.90
18797;DHT22;9526;52.612;13.300;2022-10-10T04:40:05;6.80;99.90
18797;DHT22;9526;52.612;13.300;2022-10-10T04:42:29;6.80;99.90
18797;DHT22;9526;52.612;13.300;2022-10-10T04:44:52;6.70;99.90
18797;DHT22;9526;52.612;13.300;2022-10-10T04:47:16;6.70;99.90
18797;DHT22;9526;52.612;13.300;2022-10-10T04:49:41;6.70;99.90
18797;DHT22;9526;52.612;13.300;2022-10-10T04:52:05;6.70;99.90
18797;DHT22;9526;52.612;13.300;2022-10-10T04:54:29;6.70;99.90
18797;DHT22;9526;52.612;13.300;2022-10-10T04:56:52;6.70;99.90
18797;DHT22;9526;52.612;13.300;2022-10-10T04:59:16;6.60;99.90
18797;DHT22;9526;52.612;13.300;2022-10-10T05:01:40;6.60;99.90
18797;DHT22;9526;52.612;13.300;2022-10-10T05:04:04;6.60;99.90
18797;DHT22;9526;52.612;13.300;2022-10-10T05:06:29;6.60;99.90
18797;DHT22;9526;52.612;13.300;2022-10-10T05:08:52;6.60;99.90
18797;DHT22;9526;52.612;13.300;2022-10-10T05:11:16;6.70;99.90
18797;DHT22;9526;52.612;13.300;2022-10-10T05:13:40;6.70;99.90
18797;DHT22;9526;52.612;13.300;2022-10-10T05:16:04;6.70;99.90
18797;DHT22;9526;52.612;13.300;2022-10-10T05:18:28;6.70;99.90
18797;DHT22;9526;52.612;13.300;2022-10-10T05:20:51;6.70;99.90
18797;DHT22;9526;52.612;13.300;2022-10-10T05:23:16;6.70;99.90
18797;DHT22;9526;52.612;13.300;2022-10-10T05:25:42;6.80;99.90
18797;DHT22;9526;52.612;13.300;2022-10-10T05:28:06;6.80;99.90
18797;DHT22;9526;52.612;13.300;2022-10-10T05:30:30;6.80;99.90
18797;DHT22;9526;52.612;13.300;2022-10-10T05:32:54;6.80;99.90
18797;DHT22;9526;52.612;13.300;2022-10-10T05:35:17;6.80;99.90
18797;DHT22;9526;52.612;13.300;2022-10-10T05:37:41;6.90;99.90
18797;DHT22;9526;52.612;13.300;2022-10-10T05:40:07;6.90;99.90
18797;DHT22;9526;52.612;13.300;2022-10-10T05:42:31;6.90;99.90
18797;DHT22;9526;52.612;13.300;2022-10-10T05:44:55;6.90;99.90
18797;DHT22;9526;52.612;13.300;2022-10-10T05:47:18;6.80;99.90
18797;DHT22;9526;52.612;13.300;2022-10-10T05:49:48;6.90;99.90
18797;DHT22;9526;52.612;13.300;2022-10-10T05:52:12;6.90;99.90
18797;DHT22;9526;52.612;13.300;2022-10-10T05:54:35;6.80;99.90
18797;DHT22;9526;52.612;13.300;2022-10-10T05:57:00;6.80;99.90
18797;DHT22;9526;52.612;13.300;2022-10-10T05:59:24;6.80;99.90
18797;DHT22;9526;52.612;13.300;2022-10-10T06:01:48;6.80;99.90
18797;DHT22;9526;52.612;13.300;2022-10-10T06:04:11;6.80;99.90
18797;DHT22;9526;52.612;13.300;2022-10-10T06:06:35;6.80;99.90
18797;DHT22;9526;52.612;13.300;2022-10-10T06:08:58;6.80;99.90
18797;DHT22;9526;52.612;13.300;2022-10-10T06:11:22;6.70;99.90
18797;DHT22;9526;52.612;13.300;2022-10-10T06:13:48;6.70;99.90
18797;DHT22;9526;52.612;13.300;2022-10-10T06:16:15;6.70;99.90
18797;DHT22;9526;52.612;13.300;2022-10-10T06:18:39;6.60;99.90
18797;DHT22;9526;52.612;13.300;2022-10-10T06:21:04;6.60;99.90
18797;DHT22;9526;52.612;13.300;2022-10-10T06:23:28;6.60;99.90
18797;DHT22;9526;52.612;13.300;2022-10-10T06:25:52;6.60;99.90
18797;DHT22;9526;52.612;13.300;2022-10-10T06:28:16;6.60;99.90
18797;DHT22;9526;52.612;13.300;2022-10-10T06:30:42;6.60;99.90
18797;DHT22;9526;52.612;13.300;2022-10-10T06:33:10;6.70;99.90
18797;DHT22;9526;52.612;13.300;2022-10-10T06:35:40;6.60;99.90
18797;DHT22;9526;52.612;13.300;2022-10-10T06:38:04;6.70;99.90
18797;DHT22;9526;52.612;13.300;2022-10-10T06:40:27;6.70;99.90
18797;DHT22;9526;52.612;13.300;2022-10-10T06:42:51;6.80;99.90
18797;DHT22;9526;52.612;13.300;2022-10-10T06:45:15;6.90;99.90
18797;DHT22;9526;52.612;13.300;2022-10-10T06:47:40;7.00;99.90
18797;DHT22;9526;52.612;13.300;2022-10-10T06:50:04;7.20;99.90
18797;DHT22;9526;52.612;13.300;2022-10-10T06:52:28;7.30;99.90
18797;DHT22;9526;52.612;13.300;2022-10-10T06:54:51;7.50;99.90
18797;DHT22;9526;52.612;13.300;2022-10-10T06:57:15;7.60;99.90
18797;DHT22;9526;52.612;13.300;2022-10-10T06:59:38;7.60;99.90
18797;DHT22;9526;52.612;13.300;2022-10-10T07:02:02;7.70;99.90
18797;DHT22;9526;52.612;13.300;2022-10-10T07:04:27;7.80;99.90
18797;DHT22;9526;52.612;13.300;2022-10-10T07:06:51;7.90;99.90
18797;DHT22;9526;52.612;13.300;2022-10-10T07:09:14;8.00;99.90
18797;DHT22;9526;52.612;13.300;2022-10-10T07:11:39;8.00;99.90
18797;DHT22;9526;52.612;13.300;2022-10-10T07:14:06;8.10;99.90
18797;DHT22;9526;52.612;13.300;2022-10-10T07:16:29;8.20;99.90
18797;DHT22;9526;52.612;13.300;2022-10-10T07:18:54;8.40;99.90
18797;DHT22;9526;52.612;13.300;2022-10-10T07:21:20;8.50;99.90
18797;DHT22;9526;52.612;13.300;2022-10-10T07:23:43;8.70;99.90
18797;DHT22;9526;52.612;13.300;2022-10-10T07:26:09;8.80;99.90
18797;DHT22;9526;52.612;13.300;2022-10-10T07:28:34;8.90;99.90
18797;DHT22;9526;52.612;13.300;2022-10-10T07:31:00;9.00;99.90
18797;DHT22;9526;52.612;13.300;2022-10-10T07:33:24;9.20;99.90
18797;DHT22;9526;52.612;13.300;2022-10-10T07:35:51;9.30;99.90
18797;DHT22;9526;52.612;13.300;2022-10-10T07:38:17;9.40;99.90
18797;DHT22;9526;52.612;13.300;2022-10-10T07:40:41;9.50;99.90
18797;DHT22;9526;52.612;13.300;2022-10-10T07:43:04;9.60;99.90
18797;DHT22;9526;52.612;13.300;2022-10-10T07:45:28;9.70;99.90
18797;DHT22;9526;52.612;13.300;2022-10-10T07:47:51;9.70;99.90
18797;DHT22;9526;52.612;13.300;2022-10-10T07:50:15;9.80;99.90
18797;DHT22;9526;52.612;13.300;2022-10-10T07:52:39;9.80;99.90
18797;DHT22;9526;52.612;13.300;2022-10-10T07:55:06;9.80;99.90
18797;DHT22;9526;52.612;13.300;2022-10-10T07:57:30;10.00;99.90
18797;DHT22;9526;52.612;13.300;2022-10-10T07:59:55;10.00;99.90
18797;DHT22;9526;52.612;13.300;2022-10-10T08:02:19;10.00;99.90
18797;DHT22;9526;52.612;13.300;2022-10-10T08:04:43;10.10;99.90
18797;DHT22;9526;52.612;13.300;2022-10-10T08:07:06;10.10;99.90
18797;DHT22;9526;52.612;13.300;2022-10-10T08:09:30;10.20;99.90
18797;DHT22;9526;52.612;13.300;2022-10-10T08:11:55;10.20;99.90
18797;DHT22;9526;52.612;13.300;2022-10-10T08:14:18;10.40;99.90
18797;DHT22;9526;52.612;13.300;2022-10-10T08:16:42;10.60;99.90
18797;DHT22;9526;52.612;13.300;2022-10-10T08:19:06;10.70;99.90
18797;DHT22;9526;52.612;13.300;2022-10-10T08:21:30;11.00;99.90
18797;DHT22;9526;52.612;13.300;2022-10-10T08:23:57;11.30;99.90
18797;DHT22;9526;52.612;13.300;2022-10-10T08:26:20;11.60;99.90
18797;DHT22;9526;52.612;13.300;2022-10-10T08:28:46;11.80;99.90
18797;DHT22;9526;52.612;13.300;2022-10-10T08:31:11;12.00;99.90
18797;DHT22;9526;52.612;13.300;2022-10-10T08:33:37;12.10;99.90
18797;DHT22;9526;52.612;13.300;2022-10-10T08:36:04;12.20;99.90
18797;DHT22;9526;52.612;13.300;2022-10-10T08:38:29;12.30;99.90
18797;DHT22;9526;52.612;13.300;2022-10-10T08:40:54;12.40;99.90
18797;DHT22;9526;52.612;13.300;2022-10-10T08:43:22;12.40;99.90
18797;DHT22;9526;52.612;13.300;2022-10-10T08:45:54;12.50;99.90
18797;DHT22;9526;52.612;13.300;2022-10-10T08:48:22;12.40;99.90
18797;DHT22;9526;52.612;13.300;2022-10-10T08:50:50;12.60;99.90
18797;DHT22;9526;52.612;13.300;2022-10-10T08:53:21;12.80;99.90
18797;DHT22;9526;52.612;13.300;2022-10-10T08:55:47;12.80;99.90
18797;DHT22;9526;52.612;13.300;2022-10-10T08:58:15;12.90;99.90
18797;DHT22;9526;52.612;13.300;2022-10-10T09:00:46;13.00;99.90
18797;DHT22;9526;52.612;13.300;2022-10-10T09:03:19;13.10;99.90
18797;DHT22;9526;52.612;13.300;2022-10-10T09:06:05;13.10;99.90
18797;DHT22;9526;52.612;13.300;2022-10-10T09:08:46;13.30;99.90
18797;DHT22;9526;52.612;13.300;2022-10-10T09:11:26;13.40;99.90
18797;DHT22;9526;52.612;13.300;2022-10-10T09:14:06;13.40;99.90
18797;DHT22;9526;52.612;13.300;2022-10-10T09:16:44;13.60;99.90
18797;DHT22;9526;52.612;13.300;2022-10-10T09:19:22;13.60;99.90
18797;DHT22;9526;52.612;13.300;2022-10-10T09:21:56;13.80;99.90
18797;DHT22;9526;52.612;13.300;2022-10-10T09:24:26;13.80;99.90
18797;DHT22;9526;52.612;13.300;2022-10-10T09:26:59;14.00;99.90
18797;DHT22;9526;52.612;13.300;2022-10-10T09:29:29;14.10;99.90
18797;DHT22;9526;52.612;13.300;2022-10-10T09:31:57;14.30;99.90
18797;DHT22;9526;52.612;13.300;2022-10-10T09:34:30;14.40;99.90
18797;DHT22;9526;52.612;13.300;2022-10-10T09:36:57;14.70;99.90
18797;DHT22;9526;52.612;13.300;2022-10-10T09:39:33;15.00;99.90
18797;DHT22;9526;52.612;13.300;2022-10-10T09:42:02;15.50;99.90
18797;DHT22;9526;52.612;13.300;2022-10-10T09:44:27;15.50;99.90
18797;DHT22;9526;52.612;13.300;2022-10-10T09:46:51;15.50;99.90
18797;DHT22;9526;52.612;13.300;2022-10-10T09:49:16;15.70;99.90
18797;DHT22;9526;52.612;13.300;2022-10-10T09:51:43;15.90;99.90
18797;DHT22;9526;52.612;13.300;2022-10-10T09:54:07;15.60;99.90
18797;DHT22;9526;52.612;13.300;2022-10-10T09:56:36;15.60;99.90
18797;DHT22;9526;52.612;13.300;2022-10-10T09:59:02;15.40;99.90
18797;DHT22;9526;52.612;13.300;2022-10-10T10:01:27;15.30;99.90
18797;DHT22;9526;52.612;13.300;2022-10-10T10:04:09;15.30;99.90
18797;DHT22;9526;52.612;13.300;2022-10-10T10:06:51;15.40;99.90
18797;DHT22;9526;52.612;13.300;2022-10-10T10:09:16;15.30;99.90
18797;DHT22;9526;52.612;13.300;2022-10-10T10:11:42;15.30;99.90
18797;DHT22;9526;52.612;13.300;2022-10-10T10:14:18;15.20;99.90
18797;DHT22;9526;52.612;13.300;2022-10-10T10:16:46;15.20;99.90
18797;DHT22;9526;52.612;13.300;2022-10-10T10:19:28;15.30;99.90
18797;DHT22;9526;52.612;13.300;2022-10-10T10:21:55;15.40;99.90
18797;DHT22;9526;52.612;13.300;2022-10-10T10:24:21;15.40;99.90
18797;DHT22;9526;52.612;13.300;2022-10-10T10:26:47;15.50;99.90
18797;DHT22;9526;52.612;13.300;2022-10-10T10:29:26;15.70;99.90
18797;DHT22;9526;52.612;13.300;2022-10-10T10:31:53;16.20;99.90
18797;DHT22;9526;52.612;13.300;2022-10-10T10:34:34;16.60;99.90
18797;DHT22;9526;52.612;13.300;2022-10-10T10:37:17;17.00;99.90
18797;DHT22;9526;52.612;13.300;2022-10-10T10:39:57;17.30;99.90
18797;DHT22;9526;52.612;13.300;2022-10-10T10:42:52;17.60;99.90
18797;DHT22;9526;52.612;13.300;2022-10-10T10:45:43;17.80;99.90
18797;DHT22;9526;52.612;13.300;2022-10-10T10:48:25;18.00;99.90
18797;DHT22;9526;52.612;13.300;2022-10-10T10:50:53;18.00;99.90
18797;DHT22;9526;52.612;13.300;2022-10-10T10:53:26;18.20;99.90
18797;DHT22;9526;52.612;13.300;2022-10-10T10:56:03;18.50;99.90
18797;DHT22;9526;52.612;13.300;2022-10-10T10:58:49;18.40;99.90
18797;DHT22;9526;52.612;13.300;2022-10-10T11:01:53;18.30;99.90
18797;DHT22;9526;52.612;13.300;2022-10-10T11:04:46;18.30;99.90
18797;DHT22;9526;52.612;13.300;2022-10-10T11:07:40;18.40;99.90
18797;DHT22;9526;52.612;13.300;2022-10-10T11:10:13;18.40;99.90
18797;DHT22;9526;52.612;13.300;2022-10-10T11:12:52;18.40;99.90
18797;DHT22;9526;52.612;13.300;2022-10-10T11:15:22;18.40;99.90
18797;DHT22;9526;52.612;13.300;2022-10-10T11:18:10;18.40;99.90
18797;DHT22;9526;52.612;13.300;2022-10-10T11:20:39;18.20;99.90
18797;DHT22;9526;52.612;13.300;2022-10-10T11:23:09;18.00;99.90
18797;DHT22;9526;52.612;13.300;2022-10-10T11:25:40;17.90;99.90
18797;DHT22;9526;52.612;13.300;2022-10-10T11:28:09;17.80;99.90
18797;DHT22;9526;52.612;13.300;2022-10-10T11:30:41;17.80;99.90
18797;DHT22;9526;52.612;13.300;2022-10-10T11:33:11;17.90;99.90
18797;DHT22;9526;52.612;13.300;2022-10-10T11:35:41;18.00;99.90
18797;DHT22;9526;52.612;13.300;2022-10-10T11:38:16;17.80;99.90
18797;DHT22;9526;52.612;13.300;2022-10-10T11:40:49;17.80;99.90
18797;DHT22;9526;52.612;13.300;2022-10-10T11:43:21;17.80;99.90
18797;DHT22;9526;52.612;13.300;2022-10-10T11:45:56;17.80;99.90
18797;DHT22;9526;52.612;13.300;2022-10-10T11:48:28;17.90;99.90
18797;DHT22;9526;52.612;13.300;2022-10-10T11:51:02;17.80;99.90
18797;DHT22;9526;52.612;13.300;2022-10-10T11:53:32;17.90;99.90
18797;DHT22;9526;52.612;13.300;2022-10-10T11:56:10;17.90;99.90
18797;DHT22;9526;52.612;13.300;2022-10-10T11:58:41;18.00;99.90
18797;DHT22;9526;52.612;13.300;2022-10-10T12:01:13;17.80;99.90
18797;DHT22;9526;52.612;13.300;2022-10-10T12:03:40;17.70;99.90
18797;DHT22;9526;52.612;13.300;2022-10-10T12:06:13;17.80;99.90
18797;DHT22;9526;52.612;13.300;2022-10-10T12:08:44;17.90;99.90
18797;DHT22;9526;52.612;13.300;2022-10-10T12:11:20;17.90;99.90
18797;DHT22;9526;52.612;13.300;2022-10-10T12:13:50;17.80;99.90
18797;DHT22;9526;52.612;13.300;2022-10-10T12:16:19;17.90;99.90
18797;DHT22;9526;52.612;13.300;2022-10-10T12:18:51;17.80;99.90
18797;DHT22;9526;52.612;13.300;2022-10-10T12:21:18;17.90;99.90
18797;DHT22;9526;52.612;13.300;2022-10-10T12:23:45;17.70;99.90
18797;DHT22;9526;52.612;13.300;2022-10-10T12:26:18;17.80;99.90
18797;DHT22;9526;52.612;13.300;2022-10-10T12:29:01;17.80;99.90
18797;DHT22;9526;52.612;13.300;2022-10-10T12:31:28;17.90;99.90
18797;DHT22;9526;52.612;13.300;2022-10-10T12:34:15;17.80;99.90
18797;DHT22;9526;52.612;13.300;2022-10-10T12:37:19;17.70;99.90
18797;DHT22;9526;52.612;13.300;2022-10-10T12:42:59;18.00;99.90
18797;DHT22;9526;52.612;13.300;2022-10-10T12:45:56;17.90;99.90
18797;DHT22;9526;52.612;13.300;2022-10-10T12:48:30;18.00;99.90
18797;DHT22;9526;52.612;13.300;2022-10-10T12:50:57;17.90;99.90
18797;DHT22;9526;52.612;13.300;2022-10-10T12:53:24;17.80;99.90
18797;DHT22;9526;52.612;13.300;2022-10-10T12:55:51;17.90;99.90
18797;DHT22;9526;52.612;13.300;2022-10-10T12:58:20;17.90;99.90
18797;DHT22;9526;52.612;13.300;2022-10-10T13:00:49;18.00;99.90
18797;DHT22;9526;52.612;13.300;2022-10-10T13:03:19;17.90;99.90
18797;DHT22;9526;52.612;13.300;2022-10-10T13:05:47;17.70;99.90
18797;DHT22;9526;52.612;13.300;2022-10-10T13:08:15;17.60;99.90
18797;DHT22;9526;52.612;13.300;2022-10-10T13:10:40;17.60;99.90
18797;DHT22;9526;52.612;13.300;2022-10-10T13:13:06;17.60;99.90
18797;DHT22;9526;52.612;13.300;2022-10-10T13:15:39;17.60;99.90
18797;DHT22;9526;52.612;13.300;2022-10-10T13:18:02;17.60;99.90
18797;DHT22;9526;52.612;13.300;2022-10-10T13:20:33;17.50;99.90
18797;DHT22;9526;52.612;13.300;2022-10-10T13:23:02;17.40;99.90
18797;DHT22;9526;52.612;13.300;2022-10-10T13:25:28;17.50;99.90
18797;DHT22;9526;52.612;13.300;2022-10-10T13:27:52;17.50;99.90
18797;DHT22;9526;52.612;13.300;2022-10-10T13:30:18;17.60;99.90
18797;DHT22;9526;52.612;13.300;2022-10-10T13:32:43;17.60;99.90
18797;DHT22;9526;52.612;13.300;2022-10-10T13:35:13;17.60;99.90
18797;DHT22;9526;52.612;13.300;2022-10-10T13:37:39;17.60;99.90
18797;DHT22;9526;52.612;13.300;2022-10-10T13:40:05;17.50;99.90
18797;DHT22;9526;52.612;13.300;2022-10-10T13:42:37;17.50;99.90
18797;DHT22;9526;52.612;13.300;2022-10-10T13:45:27;17.50;99.90
18797;DHT22;9526;52.612;13.300;2022-10-10T13:48:16;17.50;99.90
18797;DHT22;9526;52.612;13.300;2022-10-10T13:51:03;17.50;99.90
18797;DHT22;9526;52.612;13.300;2022-10-10T13:53:43;17.50;99.90
18797;DHT22;9526;52.612;13.300;2022-10-10T13:56:18;17.50;99.90
18797;DHT22;9526;52.612;13.300;2022-10-10T13:58:48;17.40;99.90
18797;DHT22;9526;52.612;13.300;2022-10-10T14:01:21;17.30;99.90
18797;DHT22;9526;52.612;13.300;2022-10-10T14:03:51;17.30;99.90
18797;DHT22;9526;52.612;13.300;2022-10-10T14:06:17;17.30;99.90
18797;DHT22;9526;52.612;13.300;2022-10-10T14:08:42;17.20;99.90
18797;DHT22;9526;52.612;13.300;2022-10-10T14:11:07;17.10;99.90
18797;DHT22;9526;52.612;13.300;2022-10-10T14:13:32;17.20;99.90
18797;DHT22;9526;52.612;13.300;2022-10-10T14:16:11;17.10;99.90
18797;DHT22;9526;52.612;13.300;2022-10-10T14:18:35;17.10;99.90
18797;DHT22;9526;52.612;13.300;2022-10-10T14:20:59;17.00;99.90
18797;DHT22;9526;52.612;13.300;2022-10-10T14:23:23;17.00;99.90
18797;DHT22;9526;52.612;13.300;2022-10-10T14:25:48;17.00;99.90
18797;DHT22;9526;52.612;13.300;2022-10-10T14:28:14;16.90;99.90
18797;DHT22;9526;52.612;13.300;2022-10-10T14:30:40;17.10;99.90
18797;DHT22;9526;52.612;13.300;2022-10-10T14:33:10;17.10;99.90
18797;DHT22;9526;52.612;13.300;2022-10-10T14:35:34;17.20;99.90
18797;DHT22;9526;52.612;13.300;2022-10-10T14:37:58;17.20;99.90
18797;DHT22;9526;52.612;13.300;2022-10-10T14:40:22;17.20;99.90
18797;DHT22;9526;52.612;13.300;2022-10-10T14:42:45;17.20;99.90
18797;DHT22;9526;52.612;13.300;2022-10-10T14:45:12;17.30;99.90
18797;DHT22;9526;52.612;13.300;2022-10-10T14:47:36;17.20;99.90
18797;DHT22;9526;52.612;13.300;2022-10-10T14:50:01;17.20;99.90
18797;DHT22;9526;52.612;13.300;2022-10-10T14:52:24;17.10;99.90
18797;DHT22;9526;52.612;13.300;2022-10-10T14:54:48;17.10;99.90
18797;DHT22;9526;52.612;13.300;2022-10-10T14:57:12;17.10;99.90
18797;DHT22;9526;52.612;13.300;2022-10-10T14:59:36;17.10;99.90
18797;DHT22;9526;52.612;13.300;2022-10-10T15:02:09;17.10;99.90
18797;DHT22;9526;52.612;13.300;2022-10-10T15:04:34;17.10;99.90
18797;DHT22;9526;52.612;13.300;2022-10-10T15:06:59;17.00;99.90
18797;DHT22;9526;52.612;13.300;2022-10-10T15:09:35;17.00;99.90
18797;DHT22;9526;52.612;13.300;2022-10-10T15:12:09;17.00;99.90
18797;DHT22;9526;52.612;13.300;2022-10-10T15:14:32;16.90;99.90
18797;DHT22;9526;52.612;13.300;2022-10-10T15:16:56;16.90;99.90
18797;DHT22;9526;52.612;13.300;2022-10-10T15:19:20;16.90;99.90
18797;DHT22;9526;52.612;13.300;2022-10-10T15:21:43;16.80;99.90
18797;DHT22;9526;52.612;13.300;2022-10-10T15:24:08;16.80;99.90
18797;DHT22;9526;52.612;13.300;2022-10-10T15:26:32;16.70;99.90
18797;DHT22;9526;52.612;13.300;2022-10-10T15:28:55;16.70;99.90
18797;DHT22;9526;52.612;13.300;2022-10-10T15:31:25;16.60;99.90
18797;DHT22;9526;52.612;13.300;2022-10-10T15:33:53;16.60;99.90
18797;DHT22;9526;52.612;13.300;2022-10-10T15:36:16;16.60;99.90
18797;DHT22;9526;52.612;13.300;2022-10-10T15:38:40;16.50;99.90
18797;DHT22;9526;52.612;13.300;2022-10-10T15:41:06;16.40;99.90
18797;DHT22;9526;52.612;13.300;2022-10-10T15:43:33;16.40;99.90
18797;DHT22;9526;52.612;13.300;2022-10-10T15:46:07;16.40;99.90
18797;DHT22;9526;52.612;13.300;2022-10-10T15:48:31;16.30;99.90